Time;durP1;ratioP1;P1;durP2;ratioP2;P2;SDS_P1;SDS_P2;PMS_P1;PMS_P2;Temp;Humidity;BMP_temperature;BMP_pressure;BME280_temperature;BME280_humidity;BME280_pressure;Samples;Min_cycle;Max_cycle;Signal;HPM_P1;HPM_P2
2022/01/24 00:01:00;;;;;;;;;14.50;11.50;;;;;16.15;60.35;103567.88;5091613;28;8811;-71
2022/01/24 00:03:25;;;;;;;;;12.25;12.25;;;;;16.16;60.37;103572.28;5091902;28;8801;-71
2022/01/24 00:05:50;;;;;;;;;10.00;10.00;;;;;16.16;60.49;103566.13;5091394;28;10736;-71
2022/01/24 00:08:16;;;;;;;;;10.25;8.00;;;;;16.16;60.35;103571.41;5091695;28;8800;-72
2022/01/24 00:10:44;;;;;;;;;10.50;10.00;;;;;16.14;60.48;103566.06;5092002;28;8792;-71
2022/01/24 00:26:47;;;;;;;;;8.25;8.25;;;;;16.12;60.01;103566.84;5090914;28;9796;-71
2022/01/24 00:29:17;;;;;;;;;10.25;10.25;;;;;16.14;60.07;103566.06;5090298;28;9867;-71
2022/01/24 00:31:43;;;;;;;;;11.50;9.75;;;;;16.14;59.76;103563.41;5091792;28;9692;-72
2022/01/24 00:34:08;;;;;;;;;11.00;9.75;;;;;16.16;60.05;103560.88;5090290;28;9621;-71
2022/01/24 00:36:35;;;;;;;;;10.00;8.75;;;;;16.14;59.66;103558.16;5091659;28;8756;-71
2022/01/24 00:39:00;;;;;;;;;8.50;8.50;;;;;16.15;59.81;103556.41;5091655;28;8752;-71
2022/01/24 00:41:25;;;;;;;;;11.00;9.25;;;;;16.14;59.64;103551.97;5090390;28;9906;-71
2022/01/24 00:46:42;;;;;;;;;9.75;8.25;;;;;16.13;59.85;103545.78;5091354;28;9436;-71
2022/01/24 00:57:00;;;;;;;;;9.00;9.00;;;;;16.15;59.60;103543.25;5091260;28;9520;-71
2022/01/24 00:59:26;;;;;;;;;7.75;7.75;;;;;16.14;59.61;103541.44;5091108;28;9695;-70
2022/01/24 01:01:51;;;;;;;;;10.00;9.75;;;;;16.14;59.49;103542.34;5090211;28;8840;-71
2022/01/24 01:04:18;;;;;;;;;7.75;7.75;;;;;16.15;59.33;103551.16;5091159;28;9162;-72
2022/01/24 01:06:45;;;;;;;;;7.00;7.00;;;;;16.13;59.60;103540.53;5091449;28;8764;-72
2022/01/24 01:20:06;;;;;;;;;9.75;9.50;;;;;16.13;58.79;103552.81;5090564;28;9756;-71
2022/01/24 01:22:32;;;;;;;;;9.00;7.25;;;;;16.12;58.98;103549.25;5090999;28;9873;-72
2022/01/24 01:24:58;;;;;;;;;5.50;5.50;;;;;16.10;58.87;103548.31;5090850;28;8784;-71
2022/01/24 01:27:29;;;;;;;;;7.50;7.00;;;;;16.12;59.01;103548.38;5091028;28;9213;-71
2022/01/24 01:30:00;;;;;;;;;8.25;7.25;;;;;16.13;58.98;103547.53;5089423;28;8815;-71
2022/01/24 01:35:15;;;;;;;;;5.00;5.00;;;;;16.14;58.94;103542.34;5091127;28;9764;-70
2022/01/24 01:38:13;;;;;;;;;6.00;6.00;;;;;16.12;58.88;103535.22;5090214;28;9698;-70
2022/01/24 01:56:37;;;;;;;;;6.25;6.00;;;;;16.12;58.51;103540.47;5090995;28;9599;-71
2022/01/24 01:59:03;;;;;;;;;6.00;6.00;;;;;16.14;58.52;103536.16;5090060;28;9692;-73
2022/01/24 02:01:28;;;;;;;;;7.50;7.50;;;;;16.12;58.65;103543.13;5090134;28;8835;-71
2022/01/24 02:03:55;;;;;;;;;6.00;6.00;;;;;16.12;58.42;103541.34;5090803;28;8799;-71
2022/01/24 02:06:22;;;;;;;;;7.25;7.25;;;;;16.13;58.10;103547.53;5090004;28;8785;-71
2022/01/24 02:08:47;;;;;;;;;6.25;6.00;;;;;16.13;58.39;103531.72;5092537;28;10450;-71
2022/01/24 02:11:16;;;;;;;;;7.00;7.00;;;;;16.13;58.38;103532.63;5094216;28;9552;-71
2022/01/24 02:13:45;;;;;;;;;6.00;6.00;;;;;16.12;58.06;103536.09;5093483;28;8874;-70
2022/01/24 02:16:42;;;;;;;;;5.25;5.00;;;;;16.12;58.36;103527.31;5094082;28;9769;-71
2022/01/24 02:19:14;;;;;;;;;6.00;6.00;;;;;16.12;58.16;103520.28;5092803;28;9656;-69
2022/01/24 02:24:41;;;;;;;;;4.25;4.25;;;;;16.11;58.01;103521.13;5055682;28;9727;-70
2022/01/24 02:27:09;;;;;;;;;5.00;5.00;;;;;16.11;58.14;103518.50;5093305;28;9700;-71
2022/01/24 02:32:19;;;;;;;;;5.75;5.75;;;;;16.12;58.20;103515.00;5093559;28;9619;-70
2022/01/24 02:34:48;;;;;;;;;8.25;7.75;;;;;16.14;57.91;103507.16;5093124;28;10536;-70
2022/01/24 02:37:17;;;;;;;;;9.50;8.25;;;;;16.12;57.85;103509.72;5093166;28;11363;-70
2022/01/24 02:39:51;;;;;;;;;6.00;6.00;;;;;16.12;57.97;103514.13;5094077;28;9886;-70
2022/01/24 02:53:19;;;;;;;;;7.50;5.50;;;;;16.10;58.12;103505.25;5093071;28;9583;-71
2022/01/24 02:55:45;;;;;;;;;7.25;7.25;;;;;16.12;58.11;103515.00;5093011;28;9759;-72
2022/01/24 02:58:10;;;;;;;;;6.00;5.25;;;;;16.14;58.02;103508.06;5093469;28;8790;-72
2022/01/24 03:00:37;;;;;;;;;6.75;6.25;;;;;16.12;57.95;103506.22;5093252;28;8811;-71
2022/01/24 03:03:03;;;;;;;;;9.00;7.75;;;;;16.14;57.87;103500.16;5092699;28;9531;-71
2022/01/24 03:05:35;;;;;;;;;8.50;7.00;;;;;16.14;58.07;103510.72;5093564;28;9712;-71
2022/01/24 03:08:00;;;;;;;;;7.75;7.75;;;;;16.12;57.76;103500.94;5093501;28;9775;-71
2022/01/24 03:10:35;;;;;;;;;5.25;5.25;;;;;16.12;57.79;103499.19;5092394;28;9690;-70
2022/01/24 03:15:37;;;;;;;;;8.25;6.50;;;;;16.11;57.93;103499.13;5092624;28;9628;-71
2022/01/24 03:18:02;;;;;;;;;6.00;6.00;;;;;16.12;57.83;103493.91;5093076;28;9762;-71
2022/01/24 03:20:27;;;;;;;;;7.50;7.50;;;;;16.11;57.86;103492.13;5092877;28;9639;-71
2022/01/24 03:22:53;;;;;;;;;8.50;7.00;;;;;16.12;57.71;103491.28;5092249;28;8776;-71
2022/01/24 03:25:18;;;;;;;;;8.25;8.25;;;;;16.12;57.93;103490.41;5092950;28;8763;-71
2022/01/24 03:27:43;;;;;;;;;8.50;7.50;;;;;16.12;57.84;103483.38;5093029;28;8868;-71
2022/01/24 03:30:09;;;;;;;;;10.50;9.50;;;;;16.11;57.78;103481.59;5090746;28;8886;-72
2022/01/24 03:32:34;;;;;;;;;8.25;6.75;;;;;16.11;57.70;103478.97;5092652;28;8885;-71
2022/01/24 03:34:59;;;;;;;;;9.50;9.50;;;;;16.10;57.71;103471.88;5092925;28;8776;-71
2022/01/24 03:37:25;;;;;;;;;8.00;6.75;;;;;16.11;57.70;103478.97;5091620;28;9506;-72
2022/01/24 03:39:50;;;;;;;;;6.00;6.00;;;;;16.10;57.49;103477.16;5092750;28;8788;-72
2022/01/24 03:42:15;;;;;;;;;9.50;9.50;;;;;16.12;57.76;103479.88;5092575;28;9559;-71
2022/01/24 03:44:44;;;;;;;;;9.00;9.00;;;;;16.11;57.76;103481.59;5091635;28;8784;-71
2022/01/24 03:47:29;;;;;;;;;9.00;9.00;;;;;16.10;57.72;103479.78;5093014;28;8826;-71
2022/01/24 03:49:55;;;;;;;;;11.50;11.25;;;;;16.10;57.82;103479.78;5092756;28;9688;-71
2022/01/24 03:52:20;;;;;;;;;8.00;8.00;;;;;16.09;57.68;103485.88;5091965;28;9854;-71
2022/01/24 03:54:47;;;;;;;;;12.00;9.50;;;;;16.12;57.52;103490.41;5092627;28;8872;-72
2022/01/24 03:57:14;;;;;;;;;8.00;8.00;;;;;16.11;57.31;103494.78;5093056;28;8776;-71
2022/01/24 03:59:40;;;;;;;;;7.00;7.00;;;;;16.12;57.46;103487.78;5092409;28;9847;-71
2022/01/24 04:02:06;;;;;;;;;11.00;8.50;;;;;16.10;57.69;103484.16;5091866;28;9925;-71
2022/01/24 04:04:31;;;;;;;;;8.00;7.75;;;;;16.10;57.71;103485.06;5092229;28;8775;-71
2022/01/24 04:06:57;;;;;;;;;8.50;8.25;;;;;16.09;57.59;103477.97;5092616;28;8789;-71
2022/01/24 04:09:22;;;;;;;;;10.75;10.75;;;;;16.12;57.27;103479.88;5091724;28;8856;-72
2022/01/24 04:11:52;;;;;;;;;9.75;8.25;;;;;16.10;57.24;103478.88;5092190;28;8815;-72
2022/01/24 04:14:35;;;;;;;;;9.00;9.00;;;;;16.11;57.35;103492.13;5092338;28;8792;-71
2022/01/24 04:17:22;;;;;;;;;7.50;7.50;;;;;16.11;57.47;103484.22;5092372;28;10577;-71
2022/01/24 04:22:23;;;;;;;;;11.00;11.00;;;;;16.11;57.18;103491.22;5091437;28;9748;-70
2022/01/24 04:24:49;;;;;;;;;11.50;11.50;;;;;16.10;57.56;103490.34;5091810;28;9989;-71
2022/01/24 04:27:15;;;;;;;;;7.25;7.25;;;;;16.08;57.58;103492.03;5091036;28;9850;-72
2022/01/24 04:29:42;;;;;;;;;11.25;8.75;;;;;16.10;57.50;103489.44;5091042;28;9792;-71
2022/01/24 04:32:08;;;;;;;;;9.75;9.75;;;;;16.11;57.14;103496.50;5091084;28;11567;-70
2022/01/24 04:34:33;;;;;;;;;9.00;9.00;;;;;16.09;57.32;103491.16;5091184;28;9869;-71
2022/01/24 04:36:59;;;;;;;;;13.50;13.50;;;;;16.10;57.53;103487.69;5091912;28;9787;-71
2022/01/24 04:39:25;;;;;;;;;12.75;9.00;;;;;16.11;57.24;103481.59;5091746;28;8771;-71
2022/01/24 04:41:54;;;;;;;;;10.00;10.00;;;;;16.10;57.29;103473.63;5091308;28;8807;-71
2022/01/24 04:47:00;;;;;;;;;7.00;7.00;;;;;16.10;57.19;103477.16;5091654;28;9841;-71
2022/01/24 04:52:16;;;;;;;;;13.00;10.00;;;;;16.09;57.37;103479.72;5091104;28;9839;-71
2022/01/24 04:54:42;;;;;;;;;10.00;10.00;;;;;16.08;57.25;103472.66;5090745;28;9676;-71
2022/01/24 04:57:22;;;;;;;;;12.50;11.50;;;;;16.08;57.00;103480.56;5091640;28;9882;-72
2022/01/24 04:59:50;;;;;;;;;11.25;11.25;;;;;16.08;57.05;103475.31;5091755;28;9847;-70
2022/01/24 05:02:17;;;;;;;;;13.00;12.50;;;;;16.09;57.15;103477.06;5090402;28;9734;-71
2022/01/24 05:04:42;;;;;;;;;12.00;12.00;;;;;16.09;57.04;103475.34;5091571;28;9683;-71
2022/01/24 05:07:08;;;;;;;;;13.00;10.75;;;;;16.09;56.98;103466.53;5090929;28;9724;-72
2022/01/24 05:09:41;;;;;;;;;9.00;9.00;;;;;16.09;57.09;103472.72;5090750;28;8772;-71
2022/01/24 05:12:19;;;;;;;;;10.25;10.25;;;;;16.09;56.91;103475.34;5091146;28;9577;-70
2022/01/24 05:25:42;;;;;;;;;12.50;12.50;;;;;16.08;56.91;103472.66;5091125;28;9761;-70
2022/01/24 05:28:08;;;;;;;;;11.00;11.00;;;;;16.10;57.18;103466.63;5090977;28;9724;-71
2022/01/24 05:30:33;;;;;;;;;10.25;10.00;;;;;16.09;56.70;103474.44;5089656;28;8902;-71
2022/01/24 05:32:58;;;;;;;;;12.75;11.75;;;;;16.08;57.12;103476.22;5091248;28;8780;-71
2022/01/24 05:35:23;;;;;;;;;15.25;12.75;;;;;16.08;56.78;103473.56;5090712;28;8790;-71
2022/01/24 05:37:49;;;;;;;;;12.00;12.00;;;;;16.08;56.84;103473.56;5090302;28;8772;-72
2022/01/24 05:40:14;;;;;;;;;10.50;10.50;;;;;16.08;56.93;103475.31;5090949;28;8770;-71
2022/01/24 05:42:39;;;;;;;;;12.25;12.25;;;;;16.09;56.75;103477.97;5090688;28;8820;-72
2022/01/24 05:45:06;;;;;;;;;12.50;11.25;;;;;16.08;56.94;103470.03;5093918;28;8788;-71
2022/01/24 05:47:31;;;;;;;;;10.75;9.75;;;;;16.07;56.63;103478.75;5095029;28;8850;-71
2022/01/24 05:49:56;;;;;;;;;11.50;11.50;;;;;16.08;56.65;103475.31;5094268;28;9690;-71
2022/01/24 05:52:22;;;;;;;;;12.25;11.25;;;;;16.09;56.73;103480.63;5094625;28;8763;-72
2022/01/24 05:54:47;;;;;;;;;11.00;10.00;;;;;16.08;56.95;103473.56;5094899;28;8807;-71
2022/01/24 05:57:12;;;;;;;;;13.75;12.00;;;;;16.09;56.82;103471.81;5093397;28;8764;-71
2022/01/24 05:59:38;;;;;;;;;1.75;0.50;;;;;16.08;56.71;103478.84;5094629;28;8788;-71
2022/01/24 06:02:07;;;;;;;;;14.00;13.00;;;;;16.07;56.50;103478.75;5094195;28;8847;-72
2022/01/24 06:04:32;;;;;;;;;8.50;6.75;;;;;16.08;56.84;103483.22;5093661;28;8969;-71
2022/01/24 06:06:59;;;;;;;;;12.25;11.75;;;;;16.08;56.82;103489.38;5094972;28;9791;-71
2022/01/24 06:09:24;;;;;;;;;12.50;12.50;;;;;16.09;56.56;103487.63;5094492;28;8779;-70
2022/01/24 06:11:51;;;;;;;;;13.75;12.25;;;;;16.09;56.57;103483.25;5093696;28;9762;-70
2022/01/24 06:14:16;;;;;;;;;13.25;12.25;;;;;16.11;56.82;103491.22;5094455;28;8756;-71
2022/01/24 06:16:41;;;;;;;;;13.75;13.25;;;;;16.09;56.77;103485.88;5094632;28;9792;-71
2022/01/24 06:19:07;;;;;;;;;14.50;14.00;;;;;16.07;56.51;103486.66;5093425;28;8808;-71
2022/01/24 06:21:32;;;;;;;;;14.50;14.50;;;;;16.09;56.49;103488.53;5094278;28;8812;-71
2022/01/24 06:23:57;;;;;;;;;13.75;12.75;;;;;16.08;56.40;103486.75;5094698;28;8784;-71
2022/01/24 06:26:23;;;;;;;;;13.00;13.00;;;;;16.10;56.48;103492.97;5093282;28;9911;-70
2022/01/24 06:28:48;;;;;;;;;14.25;14.00;;;;;16.08;56.55;103483.22;5093594;28;8776;-70
2022/01/24 06:31:22;;;;;;;;;15.25;14.25;;;;;16.10;56.33;103492.06;5093909;28;8806;-72
2022/01/24 06:33:51;;;;;;;;;16.25;16.00;;;;;16.08;56.63;103492.03;5093396;28;8886;-71
2022/01/24 06:36:17;;;;;;;;;15.00;13.00;;;;;16.10;56.47;103494.69;5093576;28;9639;-71
2022/01/24 06:38:42;;;;;;;;;12.00;11.75;;;;;16.09;56.57;103490.25;5093839;28;9781;-70
2022/01/24 06:41:26;;;;;;;;;13.00;12.50;;;;;16.10;56.42;103498.25;5093124;28;8873;-71
2022/01/24 06:43:58;;;;;;;;;12.50;12.00;;;;;16.08;56.33;103492.03;5093660;28;8780;-70
2022/01/24 06:46:23;;;;;;;;;15.75;14.25;;;;;16.09;56.51;103495.53;5092905;28;9692;-71
2022/01/24 06:48:48;;;;;;;;;15.75;15.75;;;;;16.07;56.29;103494.56;5093785;28;9852;-71
2022/01/24 06:51:14;;;;;;;;;16.50;14.25;;;;;16.08;56.03;103497.28;5093133;28;8794;-71
2022/01/24 06:53:41;;;;;;;;;14.25;13.75;;;;;16.09;56.29;103492.88;5092501;28;8776;-73
2022/01/24 06:56:07;;;;;;;;;13.75;13.75;;;;;16.09;56.38;103500.78;5093554;28;8756;-71
2022/01/24 06:58:34;;;;;;;;;14.00;14.00;;;;;16.14;58.51;103499.25;5093676;28;9779;-71
2022/01/24 07:01:00;;;;;;;;;18.25;15.00;;;;;16.27;59.06;103496.31;5092288;28;9879;-70
2022/01/24 07:03:28;;;;;;;;;19.00;17.50;;;;;16.37;58.64;103496.72;5093282;28;9774;-70
2022/01/24 07:05:56;;;;;;;;;18.50;16.00;;;;;16.47;61.42;103497.97;5092975;28;9929;-71
2022/01/24 07:08:21;;;;;;;;;17.00;15.50;;;;;16.56;59.84;103506.31;5092574;28;10764;-71
2022/01/24 07:10:47;;;;;;;;;15.00;13.25;;;;;16.68;61.97;103509.44;5093266;28;10066;-71
2022/01/24 07:13:13;;;;;;;;;16.50;15.75;;;;;16.76;62.52;103501.78;5092701;28;8764;-72
2022/01/24 07:15:47;;;;;;;;;13.50;11.25;;;;;16.88;62.13;103508.44;5092131;28;8988;-70
2022/01/24 07:18:57;;;;;;;;;15.25;15.25;;;;;16.90;64.31;103505.88;5092572;28;8784;-70
2022/01/24 07:21:04;;;;;;;;;18.50;18.50;;;;;16.91;65.35;103511.19;5092640;28;9968;-71
2022/01/24 07:23:30;;;;;;;;;22.25;19.50;;;;;16.94;65.20;103513.06;5092291;28;10099;-73
2022/01/24 07:25:55;;;;;;;;;23.75;21.00;;;;;17.06;65.93;103513.50;5093002;28;9795;-71
2022/01/24 07:28:21;;;;;;;;;22.50;19.75;;;;;17.04;66.86;103522.22;5090515;28;9511;-70
2022/01/24 07:30:47;;;;;;;;;22.25;20.25;;;;;17.02;67.12;103526.56;5081367;28;8787;-70
2022/01/24 07:33:14;;;;;;;;;22.50;22.50;;;;;16.98;67.70;103530.81;5091460;28;10196;-71
2022/01/24 07:35:40;;;;;;;;;26.00;21.50;;;;;16.96;66.89;103535.13;5091144;28;8841;-71
2022/01/24 07:38:06;;;;;;;;;21.50;20.25;;;;;16.96;67.53;103532.47;5090736;28;9971;-71
2022/01/24 07:40:39;;;;;;;;;22.75;21.50;;;;;16.98;66.98;103536.09;5076197;28;9975;-71
2022/01/24 07:45:36;;;;;;;;;26.75;23.00;;;;;16.93;66.83;103542.94;5070854;28;9970;-70
2022/01/24 07:48:03;;;;;;;;;23.00;22.00;;;;;16.90;66.58;103538.44;5080920;28;10024;-72
2022/01/24 07:50:29;;;;;;;;;17.50;17.50;;;;;16.86;66.56;103543.53;5090726;28;10148;-71
2022/01/24 07:52:55;;;;;;;;;29.75;20.75;;;;;16.84;66.26;103539.91;5091219;28;10212;-70
2022/01/24 07:55:21;;;;;;;;;24.00;23.75;;;;;16.82;66.26;103537.25;5079244;28;8786;-70
2022/01/24 07:57:46;;;;;;;;;24.25;23.25;;;;;16.83;65.59;103532.88;5069735;28;10140;-70
2022/01/24 08:00:12;;;;;;;;;24.75;22.75;;;;;16.80;65.04;103540.63;5075367;28;9587;-71
2022/01/24 08:02:38;;;;;;;;;24.50;23.25;;;;;16.75;64.77;103531.66;5070617;28;8829;-71
2022/01/24 08:05:05;;;;;;;;;23.00;20.50;;;;;16.72;64.36;103540.34;5072237;28;8788;-71
2022/01/24 08:07:30;;;;;;;;;24.75;23.75;;;;;16.70;64.25;103536.75;5078700;28;10732;-70
2022/01/24 08:09:55;;;;;;;;;19.50;19.00;;;;;16.72;63.66;103542.97;5077269;28;9916;-70
2022/01/24 08:12:21;;;;;;;;;23.25;22.25;;;;;16.72;63.17;103539.47;5068098;28;8773;-71
2022/01/24 08:14:46;;;;;;;;;24.25;23.25;;;;;16.70;63.05;103541.13;5069510;28;8912;-71
2022/01/24 08:17:11;;;;;;;;;19.75;19.75;;;;;16.71;63.00;103550.84;5071305;28;8892;-70
2022/01/24 08:19:37;;;;;;;;;21.75;21.50;;;;;16.68;62.74;103540.19;5070642;28;8790;-70
2022/01/24 08:22:02;;;;;;;;;21.25;20.00;;;;;16.68;62.70;103549.00;5071507;28;8925;-71
2022/01/24 08:24:31;;;;;;;;;28.50;25.00;;;;;16.67;62.55;103557.75;5071090;28;8804;-71
2022/01/24 08:26:56;;;;;;;;;22.75;22.75;;;;;16.65;62.02;103556.75;5068968;28;8888;-70
2022/01/24 08:29:21;;;;;;;;;23.75;22.75;;;;;16.64;62.39;103552.34;5073830;28;10197;-69
2022/01/24 08:31:47;;;;;;;;;21.75;20.50;;;;;16.64;61.99;103555.00;5090245;28;8853;-70
2022/01/24 08:34:12;;;;;;;;;23.00;23.00;;;;;16.62;61.82;103551.38;5089636;28;9585;-70
2022/01/24 08:36:37;;;;;;;;;23.00;23.00;;;;;16.64;61.51;103556.72;5090745;28;8819;-70
2022/01/24 08:39:07;;;;;;;;;21.25;21.25;;;;;16.60;61.31;103557.44;5073384;28;8802;-70
2022/01/24 08:41:57;;;;;;;;;23.00;20.25;;;;;16.60;61.16;103558.34;5086569;28;8927;-71
2022/01/24 08:46:49;;;;;;;;;20.75;20.00;;;;;16.57;60.99;103555.56;5069865;28;9973;-70
2022/01/24 08:49:14;;;;;;;;;18.00;16.25;;;;;16.57;60.87;103557.31;5069982;28;8802;-71
2022/01/24 08:51:40;;;;;;;;;21.00;21.00;;;;;16.57;60.60;103555.56;5068907;28;11592;-70
2022/01/24 08:54:06;;;;;;;;;23.50;21.25;;;;;16.55;60.68;103549.31;5069315;28;8798;-71
2022/01/24 08:56:32;;;;;;;;;24.25;22.50;;;;;16.53;60.38;103551.00;5076185;28;9487;-71
2022/01/24 08:58:57;;;;;;;;;17.25;14.50;;;;;16.55;60.27;103551.03;5090333;28;10056;-71
2022/01/24 09:01:23;;;;;;;;;20.00;19.75;;;;;16.51;60.32;103539.47;5087963;28;8835;-71
2022/01/24 09:03:48;;;;;;;;;21.50;21.50;;;;;16.52;60.30;103546.53;5075315;28;8786;-71
2022/01/24 09:06:17;;;;;;;;;20.00;20.00;;;;;16.53;59.83;103548.34;5069726;28;8802;-72
2022/01/24 09:08:43;;;;;;;;;23.75;22.25;;;;;16.50;59.80;103542.94;5069345;28;8810;-72
2022/01/24 09:11:08;;;;;;;;;23.75;23.25;;;;;16.49;59.87;103549.06;5068074;28;10105;-72
2022/01/24 09:13:34;;;;;;;;;20.75;19.75;;;;;16.53;59.78;103555.38;5069885;28;9713;-72
2022/01/24 09:16:00;;;;;;;;;21.00;20.50;;;;;16.50;59.67;103553.47;5080749;28;8824;-72
2022/01/24 09:18:26;;;;;;;;;20.25;20.25;;;;;16.51;59.36;103557.03;5089256;28;8784;-71
2022/01/24 09:20:52;;;;;;;;;24.75;24.25;;;;;16.51;59.19;103557.94;5092139;28;9893;-71
2022/01/24 09:23:18;;;;;;;;;21.00;21.00;;;;;16.49;58.89;103548.16;5089521;28;8812;-71
2022/01/24 09:25:43;;;;;;;;;22.00;16.75;;;;;16.49;59.32;103556.06;5073922;28;10051;-71
2022/01/24 09:28:09;;;;;;;;;22.25;19.00;;;;;16.47;58.83;103555.09;5081359;28;9871;-71
2022/01/24 09:30:34;;;;;;;;;18.50;17.75;;;;;16.48;59.02;103556.91;5084739;28;8826;-71
2022/01/24 09:32:59;;;;;;;;;20.00;20.00;;;;;16.47;58.60;103561.28;5074080;28;8782;-72
2022/01/24 09:35:28;;;;;;;;;22.00;21.00;;;;;16.48;58.84;103568.34;5072467;28;9588;-72
2022/01/24 09:37:53;;;;;;;;;16.25;14.25;;;;;16.52;58.77;103561.47;5073960;28;8782;-71
2022/01/24 09:40:19;;;;;;;;;20.75;20.75;;;;;16.54;58.26;103570.31;5072419;28;9957;-71
2022/01/24 09:42:47;;;;;;;;;23.75;23.00;;;;;16.54;58.06;103571.22;5093117;28;8815;-72
2022/01/24 09:45:15;;;;;;;;;20.50;18.00;;;;;16.53;58.13;103576.47;5088333;28;10039;-71
2022/01/24 09:47:41;;;;;;;;;19.25;18.00;;;;;16.52;58.08;103566.75;5081412;28;9942;-70
2022/01/24 09:50:09;;;;;;;;;22.00;21.00;;;;;16.54;57.70;103570.31;5089935;28;10070;-71
2022/01/24 09:52:39;;;;;;;;;20.00;19.50;;;;;16.53;57.94;103555.38;5073830;28;8916;-71
2022/01/24 09:55:05;;;;;;;;;17.75;17.75;;;;;16.51;57.94;103560.56;5074825;28;10868;-71
2022/01/24 09:57:30;;;;;;;;;16.25;16.25;;;;;16.52;57.81;103564.09;5093377;28;9987;-71
2022/01/24 09:59:56;;;;;;;;;19.75;18.50;;;;;16.51;57.64;103563.19;5090625;28;8894;-71
2022/01/24 10:02:26;;;;;;;;;16.50;15.25;;;;;16.56;57.28;103576.59;5073984;28;9631;-72
2022/01/24 10:04:51;;;;;;;;;19.75;19.00;;;;;16.69;57.29;103574.53;5077784;28;8902;-71
2022/01/24 10:07:17;;;;;;;;;17.00;17.00;;;;;16.66;57.19;103570.84;5082930;28;9926;-72
2022/01/24 10:09:49;;;;;;;;;20.00;17.00;;;;;16.61;57.07;103570.66;5085559;28;8804;-72
2022/01/24 10:12:34;;;;;;;;;16.50;15.50;;;;;16.60;57.37;103568.91;5075090;28;8788;-71
2022/01/24 10:17:49;;;;;;;;;21.00;17.25;;;;;16.62;56.67;103571.56;5091998;28;9844;-71
2022/01/24 10:20:26;;;;;;;;;21.75;19.25;;;;;16.65;56.36;103569.97;5079896;28;10771;-72
2022/01/24 10:23:13;;;;;;;;;19.50;19.25;;;;;16.64;56.04;103568.19;5089177;28;8822;-71
2022/01/24 10:26:04;;;;;;;;;22.00;18.25;;;;;16.63;55.90;103574.28;5092716;28;10139;-72
2022/01/24 10:28:40;;;;;;;;;25.50;22.50;;;;;16.65;55.70;103575.22;5083641;28;10162;-72
2022/01/24 10:31:10;;;;;;;;;20.50;20.00;;;;;16.63;55.79;103576.03;5087524;28;9958;-72
2022/01/24 10:33:58;;;;;;;;;15.25;15.25;;;;;16.63;55.50;103573.38;5090651;28;9964;-72
2022/01/24 10:36:35;;;;;;;;;18.50;18.00;;;;;16.70;55.60;103571.06;5072539;28;9977;-71
2022/01/24 10:39:12;;;;;;;;;16.75;16.25;;;;;16.70;55.53;103568.41;5071741;28;9867;-71
2022/01/24 10:42:09;;;;;;;;;19.00;18.25;;;;;16.66;55.40;103570.84;5085292;28;9839;-71
2022/01/24 10:44:36;;;;;;;;;16.75;15.50;;;;;16.61;55.52;103562.75;5092847;28;9870;-70
2022/01/24 10:47:22;;;;;;;;;22.00;22.00;;;;;16.63;55.21;103562.84;5090449;28;9741;-72
2022/01/24 10:49:48;;;;;;;;;22.25;18.25;;;;;16.63;55.23;103562.84;5072767;28;10158;-72
2022/01/24 10:52:26;;;;;;;;;22.50;19.50;;;;;16.61;54.79;103561.88;5070236;28;9967;-71
2022/01/24 10:55:09;;;;;;;;;21.75;20.25;;;;;16.62;55.10;103561.94;5072605;28;8867;-72
2022/01/24 10:57:34;;;;;;;;;23.00;21.50;;;;;16.61;54.80;103557.47;5072607;28;9949;-71
2022/01/24 11:00:28;;;;;;;;;19.00;19.00;;;;;16.62;54.65;103556.66;5071653;28;9967;-72
2022/01/24 11:02:56;;;;;;;;;19.00;18.25;;;;;16.57;54.61;103550.28;5075683;28;8834;-71
2022/01/24 11:05:47;;;;;;;;;24.50;21.00;;;;;16.61;54.87;103553.97;5092159;28;10093;-71
2022/01/24 11:08:15;;;;;;;;;18.75;17.75;;;;;16.60;54.50;103541.63;5085687;28;10018;-71
2022/01/24 11:10:46;;;;;;;;;18.00;18.00;;;;;16.59;54.52;103543.34;5087206;28;9993;-70
2022/01/24 11:13:13;;;;;;;;;16.75;16.75;;;;;16.60;54.80;103542.53;5072149;28;9957;-71
2022/01/24 11:15:41;;;;;;;;;16.75;16.25;;;;;16.60;54.52;103536.34;5084479;28;10001;-71
2022/01/24 11:18:08;;;;;;;;;22.50;20.00;;;;;16.56;54.79;103537.97;5090635;28;10713;-71
2022/01/24 11:20:40;;;;;;;;;18.50;18.25;;;;;16.62;54.60;103537.28;5070578;28;9836;-70
2022/01/24 11:23:07;;;;;;;;;19.25;18.50;;;;;16.66;54.53;103536.56;5071614;28;9966;-71
2022/01/24 11:25:43;;;;;;;;;22.25;19.75;;;;;16.65;54.39;103526.84;5073895;28;10075;-71
2022/01/24 11:28:12;;;;;;;;;18.25;18.00;;;;;16.62;54.64;103534.66;5075611;28;9927;-71
2022/01/24 11:30:53;;;;;;;;;16.25;16.25;;;;;16.61;54.36;103524.97;5085297;28;9957;-71
2022/01/24 11:33:28;;;;;;;;;18.50;17.25;;;;;16.60;54.50;103525.78;5091629;28;10429;-71
2022/01/24 11:36:01;;;;;;;;;18.50;18.50;;;;;16.58;54.30;103516.91;5090528;28;9990;-71
2022/01/24 11:38:32;;;;;;;;;21.75;20.50;;;;;16.61;54.37;103522.31;5083052;28;10044;-71
2022/01/24 11:41:02;;;;;;;;;17.00;17.00;;;;;16.60;54.26;103525.78;5070401;28;10145;-72
2022/01/24 11:43:36;;;;;;;;;16.75;15.75;;;;;16.58;54.51;103517.81;5075110;28;9927;-71
2022/01/24 11:46:07;;;;;;;;;21.50;18.00;;;;;16.59;54.27;103513.44;5091598;28;9946;-72
2022/01/24 11:48:38;;;;;;;;;18.00;16.75;;;;;16.57;54.41;103520.41;5087403;28;10054;-71
2022/01/24 11:51:11;;;;;;;;;15.75;14.75;;;;;16.57;54.20;103512.50;5079212;28;9859;-71
2022/01/24 11:53:42;;;;;;;;;19.75;19.75;;;;;16.58;54.38;103519.53;5091220;28;9990;-70
2022/01/24 11:56:35;;;;;;;;;18.25;18.25;;;;;16.55;54.40;103516.75;5081913;28;10179;-70
2022/01/24 11:59:22;;;;;;;;;16.00;15.00;;;;;16.57;54.27;103515.13;5086951;28;9869;-71
2022/01/24 12:02:04;;;;;;;;;15.50;15.50;;;;;16.54;54.65;103510.56;5069910;28;9839;-71
2022/01/24 12:04:50;;;;;;;;;15.75;15.75;;;;;16.56;54.41;103508.00;5069933;28;9927;-71
2022/01/24 12:07:20;;;;;;;;;19.50;17.00;;;;;16.56;54.50;103515.91;5086859;28;9976;-71
2022/01/24 12:09:46;;;;;;;;;20.75;19.25;;;;;16.57;54.31;103515.13;5090284;28;9882;-72
2022/01/24 12:12:48;;;;;;;;;19.25;17.50;;;;;16.57;54.27;103515.13;5087704;28;9878;-70
2022/01/24 12:15:38;;;;;;;;;20.00;20.00;;;;;16.57;54.34;103518.63;5071232;28;9549;-71
2022/01/24 12:18:26;;;;;;;;;16.75;15.00;;;;;16.57;54.32;103513.34;5090250;28;9729;-71
2022/01/24 12:20:55;;;;;;;;;16.75;16.75;;;;;16.56;54.48;103508.94;5069285;28;10608;-71
2022/01/24 12:23:25;;;;;;;;;17.00;17.00;;;;;16.58;54.59;103511.63;5078215;28;9708;-70
2022/01/24 12:25:58;;;;;;;;;17.00;17.00;;;;;16.54;54.38;103507.03;5090470;28;9561;-70
2022/01/24 12:28:27;;;;;;;;;15.75;15.75;;;;;16.56;54.47;103508.94;5047918;28;10491;-71
2022/01/24 12:31:05;;;;;;;;;18.25;17.75;;;;;16.56;54.38;103502.72;5035355;28;9977;-71
2022/01/24 12:33:38;;;;;;;;;15.50;13.50;;;;;16.56;54.54;103505.38;5030666;28;9980;-71
2022/01/24 12:36:10;;;;;;;;;18.50;18.50;;;;;16.60;54.48;103509.97;5030234;28;10672;-71
2022/01/24 12:38:45;;;;;;;;;16.25;14.25;;;;;16.64;54.59;103507.50;5029658;28;9913;-71
2022/01/24 12:41:18;;;;;;;;;15.00;15.00;;;;;16.62;54.29;103505.63;5038319;28;10146;-71
2022/01/24 12:44:10;;;;;;;;;22.00;20.50;;;;;16.58;54.70;103498.44;5050597;28;9887;-70
2022/01/24 12:46:36;;;;;;;;;16.75;16.75;;;;;16.57;54.61;103499.28;5038408;28;10777;-71
2022/01/24 12:49:04;;;;;;;;;17.25;15.00;;;;;16.57;54.59;103505.44;5036712;28;9709;-70
2022/01/24 12:51:33;;;;;;;;;17.25;17.25;;;;;16.58;54.57;103504.63;5036409;28;8805;-71
2022/01/24 12:53:58;;;;;;;;;16.50;15.00;;;;;16.58;54.39;103498.44;5029909;28;9842;-71
2022/01/24 12:56:26;;;;;;;;;15.00;15.00;;;;;16.56;54.56;103489.53;5045647;28;9887;-71
2022/01/24 12:58:52;;;;;;;;;21.00;16.50;;;;;16.56;54.53;103493.13;5049622;28;8787;-71
2022/01/24 13:01:25;;;;;;;;;13.75;13.75;;;;;16.55;54.15;103487.75;5057248;28;9836;-70
2022/01/24 13:04:08;;;;;;;;;22.25;21.25;;;;;16.55;54.57;103482.47;5063012;28;10959;-70
2022/01/24 13:06:36;;;;;;;;;14.00;14.00;;;;;16.55;54.54;103482.47;5043666;28;9947;-72
2022/01/24 13:09:16;;;;;;;;;15.50;14.75;;;;;16.53;54.43;103481.53;5030124;28;9912;-70